CPX433 Details

Departure: Chicago/Rockford International Airport (KRFD)
Arrival: Washington Dulles International Airport (KIAD)
Route: JOT J60 JERRI NUSMM MGW GIBBZ2


Current Weather Information
KRFD 260154Z 34013G22KT 9SM -RA FEW012 FEW017 OVC070 12/09 A2979 RMK AO2 SLP091 P0006 T01170094
KIAD 260152Z VRB04KT 10SM -RA SCT050 BKN070 OVC110 18/13 A2989 RMK AO2 RAB19 SLP121 P0000 T01780128